Time;durP1;ratioP1;P1;durP2;ratioP2;P2;SDS_P1;SDS_P2;PMS_P1;PMS_P2;Temp;Humidity;BMP_temperature;BMP_pressure;BME280_temperature;BME280_humidity;BME280_pressure;Samples;Min_cycle;Max_cycle;Signal;HPM_P1;HPM_P2
2022/10/13 00:02:11;;;;;;;11.77;2.78;;;14.30;99.90;;;;;;5072962;28;20111;-47
2022/10/13 00:04:36;;;;;;;15.48;2.38;;;14.30;99.90;;;;;;5073018;28;20469;-46
2022/10/13 00:07:02;;;;;;;15.52;2.38;;;14.30;99.90;;;;;;5072779;28;20032;-51
2022/10/13 00:09:28;;;;;;;16.35;2.67;;;14.30;99.90;;;;;;5072841;28;20073;-46
2022/10/13 00:11:56;;;;;;;10.07;2.03;;;14.30;99.90;;;;;;5072690;28;20017;-48
2022/10/13 00:14:22;;;;;;;12.90;2.57;;;14.30;99.90;;;;;;5072820;28;20033;-50
2022/10/13 00:16:47;;;;;;;12.05;2.53;;;14.30;99.90;;;;;;5072672;28;20300;-51
2022/10/13 00:19:13;;;;;;;13.88;2.85;;;14.30;99.90;;;;;;5072773;28;20029;-51
2022/10/13 00:21:39;;;;;;;13.52;2.50;;;14.30;99.90;;;;;;5072242;28;20025;-47
2022/10/13 00:24:05;;;;;;;11.57;2.40;;;14.30;99.90;;;;;;5072341;28;20472;-49
2022/10/13 00:26:30;;;;;;;18.30;3.30;;;14.30;99.90;;;;;;5072681;28;20020;-48
2022/10/13 00:28:56;;;;;;;12.48;3.05;;;14.30;99.90;;;;;;5072676;28;20036;-54
2022/10/13 00:31:30;;;;;;;8.48;2.20;;;14.30;99.90;;;;;;5072477;28;20044;-49
2022/10/13 00:33:57;;;;;;;14.25;2.60;;;14.30;99.90;;;;;;5072503;28;20017;-50
2022/10/13 00:36:23;;;;;;;12.07;2.10;;;14.30;99.90;;;;;;5072080;28;20036;-47
2022/10/13 00:38:51;;;;;;;10.75;2.60;;;14.30;99.90;;;;;;5072575;28;20059;-48
2022/10/13 00:41:17;;;;;;;8.80;2.55;;;14.30;99.90;;;;;;5072267;28;20537;-47
2022/10/13 00:43:59;;;;;;;10.95;2.42;;;14.30;99.90;;;;;;5072137;28;20056;-48
2022/10/13 00:46:36;;;;;;;14.63;2.97;;;14.30;99.90;;;;;;5070762;28;20021;-46
2022/10/13 00:49:12;;;;;;;10.95;2.83;;;14.30;99.90;;;;;;5072117;28;20475;-48
2022/10/13 00:51:43;;;;;;;9.65;2.25;;;14.20;99.90;;;;;;5071820;28;20016;-49
2022/10/13 00:54:13;;;;;;;7.05;2.28;;;14.20;99.90;;;;;;5072163;28;20025;-50
2022/10/13 00:56:41;;;;;;;5.05;1.20;;;14.10;99.90;;;;;;5071899;28;20032;-49
2022/10/13 00:59:21;;;;;;;4.40;1.23;;;14.10;99.90;;;;;;5071882;28;20034;-52
2022/10/13 01:01:51;;;;;;;3.65;1.20;;;14.00;99.90;;;;;;5072178;28;20040;-48
2022/10/13 01:04:18;;;;;;;3.35;0.88;;;13.90;99.90;;;;;;5071864;28;20027;-52
2022/10/13 01:06:44;;;;;;;2.58;1.10;;;13.90;99.90;;;;;;5071866;28;20029;-50
2022/10/13 01:09:10;;;;;;;3.80;1.05;;;13.80;99.90;;;;;;5072071;28;20054;-47
2022/10/13 01:11:59;;;;;;;5.63;0.95;;;13.80;99.90;;;;;;5071758;28;20064;-46
2022/10/13 01:14:41;;;;;;;2.28;0.90;;;13.70;99.90;;;;;;5071833;28;20052;-47
2022/10/13 01:17:26;;;;;;;4.05;1.08;;;13.70;99.90;;;;;;5071446;28;20092;-46
2022/10/13 01:20:44;;;;;;;3.92;1.00;;;13.60;99.90;;;;;;5071277;28;20544;-48
2022/10/13 01:23:16;;;;;;;3.92;0.80;;;13.60;99.90;;;;;;5055431;28;20044;-48
2022/10/13 01:25:56;;;;;;;3.58;0.90;;;13.60;99.90;;;;;;5071009;28;20494;-48
2022/10/13 01:28:53;;;;;;;3.67;0.80;;;13.50;99.90;;;;;;5059389;28;20109;-50
2022/10/13 01:31:34;;;;;;;2.83;0.80;;;13.50;99.90;;;;;;5070944;28;20120;-49
2022/10/13 01:34:38;;;;;;;2.03;0.80;;;13.50;99.90;;;;;;5071358;28;20029;-49
2022/10/13 01:37:26;;;;;;;1.33;0.80;;;13.40;99.90;;;;;;5071169;28;20035;-50
2022/10/13 01:40:09;;;;;;;3.33;0.90;;;13.40;99.90;;;;;;5070940;28;20029;-48
2022/10/13 01:43:10;;;;;;;4.78;1.20;;;13.40;99.90;;;;;;5070995;28;20024;-53
2022/10/13 01:45:43;;;;;;;1.65;0.98;;;13.40;99.90;;;;;;5071498;28;20039;-49
2022/10/13 01:48:09;;;;;;;2.33;0.77;;;13.40;99.90;;;;;;5071041;28;20696;-48
2022/10/13 01:50:37;;;;;;;2.70;0.90;;;13.40;99.90;;;;;;5071089;28;20032;-50
2022/10/13 01:53:04;;;;;;;3.75;1.00;;;13.40;99.90;;;;;;5071055;28;20028;-50
2022/10/13 01:55:30;;;;;;;4.70;1.27;;;13.40;99.90;;;;;;5070758;28;20395;-50
2022/10/13 01:57:56;;;;;;;3.45;1.30;;;13.30;99.90;;;;;;5071012;28;20108;-50
2022/10/13 02:00:22;;;;;;;5.18;1.20;;;13.40;99.90;;;;;;5070943;28;20036;-47
2022/10/13 02:03:09;;;;;;;5.32;1.40;;;13.30;99.90;;;;;;5070567;28;20028;-49
2022/10/13 02:05:48;;;;;;;5.10;0.90;;;13.30;99.90;;;;;;5070966;28;20024;-48
2022/10/13 02:08:54;;;;;;;3.17;0.85;;;13.30;99.90;;;;;;5070968;28;20036;-51
2022/10/13 02:11:22;;;;;;;2.60;0.88;;;13.20;99.90;;;;;;5071201;28;20032;-50
2022/10/13 02:14:13;;;;;;;1.88;0.93;;;13.10;99.90;;;;;;5070561;28;20024;-48
2022/10/13 02:16:42;;;;;;;1.05;0.80;;;13.10;99.90;;;;;;5054387;28;20047;-48
2022/10/13 02:19:11;;;;;;;2.13;0.70;;;13.10;99.90;;;;;;5070803;28;20028;-51
2022/10/13 02:21:38;;;;;;;2.53;0.75;;;13.00;99.90;;;;;;5070929;28;20024;-45
2022/10/13 02:24:05;;;;;;;1.90;0.73;;;13.00;99.90;;;;;;5070748;28;20082;-45
2022/10/13 02:26:32;;;;;;;1.15;0.60;;;13.00;99.90;;;;;;5070851;28;20115;-48
2022/10/13 02:28:59;;;;;;;1.75;0.70;;;13.00;99.90;;;;;;5070587;28;20021;-50
2022/10/13 02:31:24;;;;;;;1.60;0.65;;;13.00;99.90;;;;;;5069519;28;20064;-46
2022/10/13 02:33:50;;;;;;;1.08;0.65;;;13.00;99.90;;;;;;5071044;28;20063;-50
2022/10/13 02:36:15;;;;;;;1.48;0.70;;;13.00;99.90;;;;;;5070447;28;20024;-46
2022/10/13 02:38:41;;;;;;;1.65;1.00;;;13.00;99.90;;;;;;5073757;28;20059;-48
2022/10/13 02:41:07;;;;;;;2.53;0.80;;;13.00;99.90;;;;;;5074699;28;20021;-47
2022/10/13 02:43:36;;;;;;;1.90;0.70;;;13.00;99.90;;;;;;5074447;28;20027;-48
2022/10/13 02:46:02;;;;;;;3.58;1.13;;;13.00;99.90;;;;;;5074606;28;20024;-52
2022/10/13 02:48:27;;;;;;;1.00;0.65;;;13.00;99.90;;;;;;5074246;28;20028;-50
2022/10/13 02:50:53;;;;;;;2.75;1.17;;;13.00;99.90;;;;;;5074613;28;20048;-49
2022/10/13 02:53:18;;;;;;;1.17;0.60;;;13.00;99.90;;;;;;5089968;28;20024;-47
2022/10/13 02:55:44;;;;;;;2.55;0.80;;;13.00;99.90;;;;;;5074308;28;20399;-44
2022/10/13 02:58:10;;;;;;;2.72;0.70;;;13.00;99.90;;;;;;5074242;28;20021;-45
2022/10/13 03:00:38;;;;;;;0.90;0.70;;;13.00;99.90;;;;;;5074468;28;20066;-47
2022/10/13 03:03:04;;;;;;;1.67;0.80;;;13.00;99.90;;;;;;5074226;28;20031;-51
2022/10/13 03:05:30;;;;;;;1.33;0.80;;;12.90;99.90;;;;;;5074060;28;20546;-51
2022/10/13 03:07:55;;;;;;;1.20;0.70;;;12.90;99.90;;;;;;5073132;28;20101;-46
2022/10/13 03:10:21;;;;;;;1.13;0.80;;;12.90;99.90;;;;;;5073987;28;20124;-47
2022/10/13 03:12:47;;;;;;;1.02;0.60;;;12.90;99.90;;;;;;5073653;28;20107;-49
2022/10/13 03:15:13;;;;;;;3.20;0.70;;;12.90;99.90;;;;;;5073986;28;20036;-46
2022/10/13 03:17:38;;;;;;;1.48;0.75;;;12.90;99.90;;;;;;5074055;28;20498;-48
2022/10/13 03:20:05;;;;;;;1.23;0.70;;;12.90;99.90;;;;;;5073971;28;20408;-48
2022/10/13 03:22:32;;;;;;;0.90;0.80;;;12.80;99.90;;;;;;5074004;28;20040;-50
2022/10/13 03:24:58;;;;;;;1.20;0.80;;;12.80;99.90;;;;;;5073653;28;20021;-46
2022/10/13 03:27:23;;;;;;;1.02;0.63;;;12.80;99.90;;;;;;5073656;28;20028;-51
2022/10/13 03:29:49;;;;;;;1.05;0.80;;;12.80;99.90;;;;;;5073697;28;20028;-45
2022/10/13 03:32:15;;;;;;;1.20;0.80;;;12.80;99.90;;;;;;5073384;28;20108;-48
2022/10/13 03:34:41;;;;;;;1.05;0.60;;;12.70;99.90;;;;;;5073622;28;20159;-52
2022/10/13 03:37:07;;;;;;;2.95;0.70;;;12.70;99.90;;;;;;5073551;28;20107;-49
2022/10/13 03:39:33;;;;;;;1.25;0.80;;;12.70;99.90;;;;;;5073664;28;20103;-46
2022/10/13 03:41:58;;;;;;;1.30;0.77;;;12.70;99.90;;;;;;5073265;28;20032;-48
2022/10/13 03:44:24;;;;;;;1.52;0.80;;;12.70;99.90;;;;;;5073495;28;20368;-48
2022/10/13 03:46:49;;;;;;;1.38;0.63;;;12.60;99.90;;;;;;5073541;28;20028;-51
2022/10/13 03:49:16;;;;;;;1.48;0.98;;;12.60;99.90;;;;;;5073050;28;20024;-46
2022/10/13 03:51:41;;;;;;;1.15;0.70;;;12.60;99.90;;;;;;5073411;28;20028;-50
2022/10/13 03:54:11;;;;;;;1.75;0.70;;;12.60;99.90;;;;;;5073093;28;20478;-46
2022/10/13 03:56:37;;;;;;;1.70;0.82;;;12.60;99.90;;;;;;5072669;28;20098;-46
2022/10/13 03:59:03;;;;;;;0.85;0.63;;;12.70;99.90;;;;;;5071484;28;20044;-45
2022/10/13 04:01:30;;;;;;;1.02;0.70;;;12.70;99.90;;;;;;5072833;28;20050;-45
2022/10/13 04:03:57;;;;;;;2.13;0.93;;;12.70;99.90;;;;;;5072182;28;20023;-50
2022/10/13 04:06:24;;;;;;;1.95;0.90;;;12.70;99.90;;;;;;5073210;28;20043;-49
2022/10/13 04:08:50;;;;;;;1.27;0.80;;;12.70;99.90;;;;;;5073059;28;20025;-49
2022/10/13 04:11:16;;;;;;;1.63;0.70;;;12.70;99.90;;;;;;5073003;28;20107;-47
2022/10/13 04:13:43;;;;;;;1.42;0.90;;;12.60;99.90;;;;;;5073028;28;20028;-49
2022/10/13 04:16:17;;;;;;;0.85;0.73;;;12.60;99.90;;;;;;5072700;28;20045;-45
2022/10/13 04:18:44;;;;;;;1.48;0.85;;;12.70;99.90;;;;;;5072613;28;20066;-45
2022/10/13 04:21:12;;;;;;;1.42;0.90;;;12.70;99.90;;;;;;5072186;28;20024;-48
2022/10/13 04:23:38;;;;;;;1.17;0.82;;;12.70;99.90;;;;;;5070184;28;20456;-46
2022/10/13 04:26:05;;;;;;;1.90;0.80;;;12.70;99.90;;;;;;5072417;28;20032;-46
2022/10/13 04:28:34;;;;;;;2.03;1.02;;;12.80;99.90;;;;;;5072602;28;20415;-48
2022/10/13 04:31:03;;;;;;;1.13;0.70;;;12.80;99.90;;;;;;5072612;28;20016;-46
2022/10/13 04:33:29;;;;;;;1.67;0.80;;;12.80;99.90;;;;;;5072239;28;20033;-46
2022/10/13 04:35:54;;;;;;;1.63;0.90;;;12.70;99.90;;;;;;5072610;28;20028;-51
2022/10/13 04:38:20;;;;;;;2.65;1.00;;;12.70;99.90;;;;;;5072212;28;20028;-46
2022/10/13 04:40:46;;;;;;;1.00;0.80;;;12.70;99.90;;;;;;5072274;28;20563;-49
2022/10/13 04:43:12;;;;;;;2.20;1.10;;;12.70;99.90;;;;;;5071936;28;20036;-47
2022/10/13 04:45:37;;;;;;;1.55;0.82;;;12.70;99.90;;;;;;5072362;28;20029;-50
2022/10/13 04:48:03;;;;;;;2.83;1.33;;;12.70;99.90;;;;;;5071370;28;20051;-46
2022/10/13 04:50:28;;;;;;;2.08;0.93;;;12.70;99.90;;;;;;5070684;28;20024;-52
2022/10/13 04:52:57;;;;;;;2.08;1.00;;;12.70;99.90;;;;;;5071435;28;20024;-45
2022/10/13 04:55:23;;;;;;;3.35;0.93;;;12.70;99.90;;;;;;5071408;28;20013;-48
2022/10/13 04:57:49;;;;;;;1.25;0.80;;;12.70;99.90;;;;;;5070017;28;20035;-50
2022/10/13 05:00:15;;;;;;;1.30;0.93;;;12.70;99.90;;;;;;5070093;28;20060;-50
2022/10/13 05:02:40;;;;;;;1.60;0.77;;;12.70;99.90;;;;;;5070516;28;20086;-49
2022/10/13 05:05:06;;;;;;;1.73;0.90;;;12.60;99.90;;;;;;5070218;28;20646;-51
2022/10/13 05:07:32;;;;;;;1.15;0.80;;;12.60;99.90;;;;;;5071378;28;20104;-46
2022/10/13 05:09:57;;;;;;;1.52;0.63;;;12.60;99.90;;;;;;5071442;28;20567;-45
2022/10/13 05:12:23;;;;;;;1.50;0.98;;;12.60;99.90;;;;;;5069962;28;20023;-46
2022/10/13 05:14:49;;;;;;;2.97;0.90;;;12.50;99.90;;;;;;5070162;28;20032;-48
2022/10/13 05:17:15;;;;;;;3.58;0.90;;;12.50;99.90;;;;;;5069644;28;20053;-47
2022/10/13 05:19:40;;;;;;;1.70;0.77;;;12.60;99.90;;;;;;5069757;28;20051;-49
2022/10/13 05:22:06;;;;;;;1.02;0.65;;;12.60;99.90;;;;;;5069918;28;20031;-45
2022/10/13 05:24:38;;;;;;;1.20;0.85;;;12.60;99.90;;;;;;5070209;28;20017;-46
2022/10/13 05:27:07;;;;;;;2.05;1.25;;;12.60;99.90;;;;;;5070482;28;20021;-53
2022/10/13 05:29:33;;;;;;;1.67;0.90;;;12.50;99.90;;;;;;5071187;28;20056;-49
2022/10/13 05:31:58;;;;;;;0.93;0.70;;;12.60;99.90;;;;;;5071446;28;20047;-46
2022/10/13 05:34:24;;;;;;;0.85;0.75;;;12.60;99.90;;;;;;5071366;28;20025;-48
2022/10/13 05:36:50;;;;;;;1.48;0.77;;;12.60;99.90;;;;;;5071203;28;20067;-47
2022/10/13 05:39:15;;;;;;;1.60;1.00;;;12.60;99.90;;;;;;5071313;28;20025;-46
2022/10/13 05:41:41;;;;;;;1.55;0.90;;;12.60;99.90;;;;;;5071241;28;20051;-46
2022/10/13 05:44:08;;;;;;;1.58;1.00;;;12.60;99.90;;;;;;5071239;28;20077;-54
2022/10/13 05:46:34;;;;;;;3.75;1.80;;;12.60;99.90;;;;;;5071080;28;20020;-51
2022/10/13 05:49:00;;;;;;;4.05;1.48;;;12.60;99.90;;;;;;5071169;28;20417;-46
2022/10/13 05:51:30;;;;;;;2.72;1.50;;;12.60;99.90;;;;;;5071342;28;20115;-48
2022/10/13 05:54:11;;;;;;;1.80;1.20;;;12.60;99.90;;;;;;5071117;28;20025;-46
2022/10/13 05:56:46;;;;;;;1.45;0.90;;;12.60;99.90;;;;;;5070594;28;20033;-48
2022/10/13 05:59:17;;;;;;;1.20;0.80;;;12.60;99.90;;;;;;5057892;28;20115;-48
2022/10/13 06:01:43;;;;;;;1.92;1.00;;;12.50;99.90;;;;;;5071239;28;20032;-50
2022/10/13 06:04:13;;;;;;;2.33;1.00;;;12.60;99.90;;;;;;5070935;28;20522;-51
2022/10/13 06:06:39;;;;;;;3.25;0.95;;;12.50;99.90;;;;;;5070918;28;20078;-48
2022/10/13 06:09:05;;;;;;;2.10;1.00;;;12.50;99.90;;;;;;5070793;28;20412;-47
2022/10/13 06:11:30;;;;;;;2.58;1.13;;;12.50;99.90;;;;;;5070707;28;20426;-47
2022/10/13 06:13:56;;;;;;;4.53;1.50;;;12.50;99.90;;;;;;5070658;28;20024;-46
2022/10/13 06:16:22;;;;;;;3.53;1.70;;;12.40;99.90;;;;;;5070627;28;20498;-46
2022/10/13 06:18:47;;;;;;;3.15;1.60;;;12.40;99.90;;;;;;5070903;28;20024;-46
2022/10/13 06:21:13;;;;;;;3.28;1.85;;;12.40;99.90;;;;;;5070765;28;20082;-46
2022/10/13 06:23:39;;;;;;;4.78;1.80;;;12.40;99.90;;;;;;5070971;28;20490;-46
2022/10/13 06:26:06;;;;;;;2.80;1.73;;;12.40;99.90;;;;;;5070407;28;20039;-46
2022/10/13 06:28:32;;;;;;;3.20;1.60;;;12.40;99.90;;;;;;5070287;28;20037;-45
2022/10/13 06:30:58;;;;;;;2.72;1.50;;;12.40;99.90;;;;;;5070815;28;20029;-45
2022/10/13 06:33:24;;;;;;;3.13;1.70;;;12.40;99.90;;;;;;5070563;28;20032;-45
2022/10/13 06:35:51;;;;;;;3.38;1.40;;;12.30;99.90;;;;;;5070876;28;20037;-47
2022/10/13 06:38:17;;;;;;;3.00;1.77;;;12.30;99.90;;;;;;5070757;28;20128;-51
2022/10/13 06:40:42;;;;;;;2.85;1.65;;;12.30;99.90;;;;;;5070751;28;20103;-50
2022/10/13 06:43:08;;;;;;;4.22;1.95;;;12.30;99.90;;;;;;5070506;28;20024;-49
2022/10/13 06:45:34;;;;;;;2.38;1.50;;;12.40;99.90;;;;;;5070451;28;20021;-46
2022/10/13 06:48:00;;;;;;;3.35;1.50;;;12.40;99.90;;;;;;5070666;28;20078;-51
2022/10/13 06:50:26;;;;;;;4.78;2.45;;;12.40;99.90;;;;;;5069795;28;20024;-46
2022/10/13 06:52:53;;;;;;;3.33;1.25;;;12.40;99.90;;;;;;5070033;28;20101;-46
2022/10/13 06:55:19;;;;;;;2.70;1.52;;;12.40;99.90;;;;;;5069512;28;20082;-48
2022/10/13 06:57:45;;;;;;;2.65;1.27;;;12.40;99.90;;;;;;5069122;28;20128;-49
2022/10/13 07:00:11;;;;;;;2.60;1.33;;;12.50;99.90;;;;;;5069518;28;20048;-50
2022/10/13 07:02:36;;;;;;;3.58;1.67;;;12.50;99.90;;;;;;5068711;28;20082;-49
2022/10/13 07:05:02;;;;;;;3.83;1.70;;;12.50;99.90;;;;;;5069892;28;20383;-46
2022/10/13 07:07:28;;;;;;;3.70;1.90;;;12.60;99.90;;;;;;5068511;28;20121;-49
2022/10/13 07:09:53;;;;;;;4.50;2.38;;;12.60;99.90;;;;;;5069584;28;20459;-52
2022/10/13 07:12:20;;;;;;;3.83;2.10;;;12.60;99.90;;;;;;5069446;28;20661;-46
2022/10/13 07:14:46;;;;;;;4.43;2.20;;;12.70;99.90;;;;;;5069802;28;20109;-47
2022/10/13 07:17:12;;;;;;;3.38;1.98;;;12.70;99.90;;;;;;5070080;28;20060;-48
2022/10/13 07:19:38;;;;;;;3.22;2.10;;;12.80;99.90;;;;;;5070184;28;20024;-45
2022/10/13 07:22:03;;;;;;;5.45;3.00;;;12.80;99.90;;;;;;5070279;28;20436;-46
2022/10/13 07:24:29;;;;;;;6.05;3.50;;;12.90;99.90;;;;;;5072645;28;20529;-44
2022/10/13 07:26:55;;;;;;;5.93;3.50;;;12.90;99.90;;;;;;5073488;28;20242;-45
2022/10/13 07:29:20;;;;;;;5.60;3.25;;;12.90;99.90;;;;;;5073813;28;20184;-48
2022/10/13 07:31:46;;;;;;;7.00;3.50;;;12.90;99.90;;;;;;5073308;28;20028;-47
2022/10/13 07:34:13;;;;;;;4.28;2.80;;;12.90;99.90;;;;;;5073588;28;20131;-44
2022/10/13 07:36:40;;;;;;;5.05;3.25;;;13.00;99.90;;;;;;5072959;28;20435;-48
2022/10/13 07:39:07;;;;;;;4.60;2.30;;;13.00;99.90;;;;;;5073340;28;20103;-50
2022/10/13 07:41:33;;;;;;;5.05;2.70;;;13.00;99.90;;;;;;5073231;28;20032;-46
2022/10/13 07:43:59;;;;;;;4.47;2.58;;;13.00;99.90;;;;;;5073661;28;20024;-44
2022/10/13 07:46:25;;;;;;;5.53;2.97;;;13.10;99.90;;;;;;5073309;28;20033;-46
2022/10/13 07:48:52;;;;;;;4.47;2.78;;;13.10;99.90;;;;;;5072165;28;20165;-46
2022/10/13 07:51:19;;;;;;;4.32;2.45;;;13.10;99.90;;;;;;5073120;28;20447;-49
2022/10/13 07:53:45;;;;;;;4.18;2.58;;;13.10;99.90;;;;;;5072786;28;20503;-53
2022/10/13 07:56:12;;;;;;;4.65;2.42;;;13.20;99.90;;;;;;5073425;28;20116;-48
2022/10/13 07:58:42;;;;;;;3.53;2.20;;;13.20;99.90;;;;;;5072834;28;20035;-49
2022/10/13 08:01:08;;;;;;;3.78;2.53;;;13.20;99.90;;;;;;5073243;28;20029;-46
2022/10/13 08:03:33;;;;;;;4.82;2.50;;;13.30;99.90;;;;;;5072815;28;20044;-47
2022/10/13 08:06:00;;;;;;;4.07;2.78;;;13.30;99.90;;;;;;5072945;28;20020;-45
2022/10/13 08:08:27;;;;;;;3.63;2.35;;;13.30;99.90;;;;;;5072709;28;20032;-49
2022/10/13 08:10:53;;;;;;;3.97;2.47;;;13.50;99.90;;;;;;5072805;28;20105;-53
2022/10/13 08:13:19;;;;;;;3.85;2.63;;;13.50;99.90;;;;;;5072982;28;20119;-47
2022/10/13 08:15:45;;;;;;;4.03;2.30;;;13.50;99.90;;;;;;5072563;28;20064;-49
2022/10/13 08:18:13;;;;;;;5.78;2.60;;;13.60;99.90;;;;;;5072921;28;20021;-49
2022/10/13 08:20:40;;;;;;;3.40;2.20;;;13.60;99.90;;;;;;5072578;28;20025;-47
2022/10/13 08:23:06;;;;;;;3.13;1.95;;;13.60;99.90;;;;;;5072433;28;20547;-47
2022/10/13 08:25:39;;;;;;;3.97;1.98;;;13.70;99.90;;;;;;5072851;28;20116;-49
2022/10/13 08:28:10;;;;;;;1.67;1.35;;;13.60;99.90;;;;;;5072595;28;20028;-53
2022/10/13 08:30:36;;;;;;;2.10;1.42;;;13.70;99.90;;;;;;5072683;28;20475;-48
2022/10/13 08:33:02;;;;;;;2.25;1.40;;;13.70;99.90;;;;;;5072270;28;20032;-47
2022/10/13 08:35:27;;;;;;;2.95;1.42;;;13.70;99.90;;;;;;5069425;28;20032;-46
2022/10/13 08:37:53;;;;;;;1.98;1.30;;;13.80;99.90;;;;;;5072158;28;20036;-47
2022/10/13 08:40:21;;;;;;;2.35;1.20;;;13.80;99.90;;;;;;5072077;28;20024;-45
2022/10/13 08:42:47;;;;;;;1.88;1.40;;;13.90;99.90;;;;;;5072091;28;20032;-46
2022/10/13 08:45:19;;;;;;;1.70;1.25;;;13.90;99.90;;;;;;5072110;28;20020;-49
2022/10/13 08:47:50;;;;;;;1.85;1.10;;;13.90;99.90;;;;;;5071805;28;20036;-46
2022/10/13 08:50:23;;;;;;;2.58;0.98;;;13.90;99.90;;;;;;5071943;28;20093;-47
2022/10/13 08:52:48;;;;;;;2.35;1.20;;;13.90;99.90;;;;;;5072349;28;20372;-50
2022/10/13 08:55:41;;;;;;;3.25;1.30;;;13.90;99.90;;;;;;5071862;28;20025;-48
2022/10/13 08:58:30;;;;;;;2.63;1.13;;;13.80;99.90;;;;;;5072139;28;20040;-50
2022/10/13 09:01:07;;;;;;;3.45;1.58;;;13.90;99.90;;;;;;5072328;28;20100;-47
2022/10/13 09:04:27;;;;;;;1.73;1.13;;;13.90;99.90;;;;;;5071594;28;20471;-49
2022/10/13 09:07:16;;;;;;;3.95;1.30;;;13.90;99.90;;;;;;4997331;28;20038;-53
2022/10/13 09:09:41;;;;;;;2.40;1.55;;;14.10;99.90;;;;;;4999254;28;20176;-49
2022/10/13 09:12:12;;;;;;;2.03;1.00;;;14.10;99.90;;;;;;5048292;28;20128;-50
2022/10/13 09:14:39;;;;;;;2.05;1.17;;;14.10;99.90;;;;;;5071241;28;20017;-47
2022/10/13 09:17:15;;;;;;;2.13;1.30;;;14.20;99.90;;;;;;5070827;28;20109;-49
2022/10/13 09:19:41;;;;;;;1.45;1.10;;;14.10;99.90;;;;;;5070557;28;20727;-49
2022/10/13 09:22:37;;;;;;;1.90;1.10;;;14.20;99.90;;;;;;5071461;28;20020;-52
2022/10/13 09:25:19;;;;;;;1.75;1.00;;;14.30;99.90;;;;;;5054961;28;20035;-47
2022/10/13 09:27:58;;;;;;;1.80;0.95;;;14.20;99.90;;;;;;5070355;28;20024;-53
2022/10/13 09:30:32;;;;;;;2.17;1.00;;;14.30;99.90;;;;;;5069253;28;20025;-49
2022/10/13 09:33:23;;;;;;;0.93;0.70;;;14.50;99.90;;;;;;5067887;28;20024;-49
2022/10/13 09:36:10;;;;;;;0.82;0.70;;;14.70;99.90;;;;;;5070940;28;20032;-49
2022/10/13 09:38:36;;;;;;;1.00;0.70;;;14.70;99.90;;;;;;5070742;28;20024;-50
2022/10/13 09:41:08;;;;;;;1.23;0.70;;;14.70;99.90;;;;;;5071042;28;20163;-50
2022/10/13 09:43:36;;;;;;;2.65;1.05;;;14.80;99.90;;;;;;5070983;28;20021;-47
2022/10/13 09:46:12;;;;;;;1.88;1.10;;;14.90;99.90;;;;;;5070770;28;20036;-48
2022/10/13 09:48:41;;;;;;;1.90;1.15;;;15.00;99.90;;;;;;5071007;28;20070;-51
2022/10/13 09:51:38;;;;;;;1.58;1.00;;;14.90;99.90;;;;;;5071010;28;20024;-46
2022/10/13 09:54:06;;;;;;;1.00;0.60;;;14.80;99.90;;;;;;5060442;28;20522;-48
2022/10/13 09:56:46;;;;;;;0.93;0.73;;;14.90;99.90;;;;;;5070926;28;20139;-49
2022/10/13 09:59:35;;;;;;;1.25;0.70;;;14.80;99.90;;;;;;5071027;28;20020;-46
2022/10/13 10:02:18;;;;;;;2.20;0.90;;;14.60;99.90;;;;;;5070776;28;20487;-46
2022/10/13 10:04:45;;;;;;;0.90;0.80;;;14.50;99.90;;;;;;5070798;28;20036;-46
2022/10/13 10:07:20;;;;;;;1.92;0.68;;;14.60;99.90;;;;;;5070428;28;20020;-46
2022/10/13 10:10:08;;;;;;;1.25;0.90;;;14.60;99.90;;;;;;5069886;28;20095;-49
2022/10/13 10:12:38;;;;;;;0.97;0.70;;;14.70;99.90;;;;;;5069695;28;20039;-47
2022/10/13 10:15:15;;;;;;;1.13;0.73;;;14.80;99.90;;;;;;5069941;28;20043;-48
2022/10/13 10:17:50;;;;;;;2.22;0.80;;;15.00;99.90;;;;;;5070394;28;20039;-46
2022/10/13 10:20:44;;;;;;;1.48;0.82;;;14.90;99.90;;;;;;5071099;28;20024;-45
2022/10/13 10:23:21;;;;;;;1.15;0.85;;;15.20;99.90;;;;;;5070497;28;20031;-46
2022/10/13 10:25:58;;;;;;;2.58;0.80;;;15.20;99.90;;;;;;5069564;28;20029;-48
2022/10/13 10:28:55;;;;;;;2.55;0.70;;;15.30;99.90;;;;;;5070247;28;20037;-48
2022/10/13 10:31:49;;;;;;;1.33;0.80;;;15.40;99.90;;;;;;5070696;28;20498;-47
2022/10/13 10:34:25;;;;;;;1.95;0.90;;;15.50;99.90;;;;;;5070769;28;20605;-44
2022/10/13 10:37:20;;;;;;;3.45;1.05;;;15.50;99.90;;;;;;5070963;28;20047;-44
2022/10/13 10:39:53;;;;;;;1.63;0.60;;;15.60;99.90;;;;;;5071468;28;20072;-46
2022/10/13 10:42:46;;;;;;;4.18;0.75;;;15.40;99.90;;;;;;5070716;28;20476;-48
2022/10/13 10:45:21;;;;;;;0.85;0.60;;;15.30;99.90;;;;;;5070590;28;20550;-46
2022/10/13 10:47:51;;;;;;;1.27;0.80;;;15.30;99.90;;;;;;5070662;28;20051;-48
2022/10/13 10:50:18;;;;;;;0.95;0.70;;;15.30;99.90;;;;;;5070455;28;20441;-47
2022/10/13 10:52:51;;;;;;;0.98;0.60;;;15.50;99.90;;;;;;5070686;28;20048;-48
2022/10/13 10:55:30;;;;;;;0.82;0.60;;;15.50;99.90;;;;;;5070431;28;20369;-50
2022/10/13 10:58:16;;;;;;;0.65;0.60;;;15.50;99.90;;;;;;5066996;28;20041;-53
2022/10/13 11:00:56;;;;;;;0.95;0.70;;;15.50;99.90;;;;;;5061711;28;20417;-47
2022/10/13 11:03:54;;;;;;;1.10;0.70;;;15.70;99.90;;;;;;5073657;28;20029;-47
2022/10/13 11:06:25;;;;;;;2.10;0.70;;;15.70;99.90;;;;;;5071661;28;20021;-46
2022/10/13 11:08:52;;;;;;;1.17;0.65;;;15.70;99.90;;;;;;5071768;28;20020;-47
2022/10/13 11:11:32;;;;;;;0.98;0.60;;;15.80;99.90;;;;;;5073285;28;20399;-47
2022/10/13 11:14:20;;;;;;;1.27;0.55;;;15.80;99.90;;;;;;5073405;28;20033;-46
2022/10/13 11:17:04;;;;;;;2.15;0.70;;;15.80;99.90;;;;;;5073522;28;20044;-47
2022/10/13 11:19:37;;;;;;;2.10;0.70;;;15.80;99.90;;;;;;5073801;28;20029;-46
2022/10/13 11:22:04;;;;;;;1.20;0.70;;;15.70;99.90;;;;;;5073800;28;20020;-48
2022/10/13 11:24:32;;;;;;;0.82;0.60;;;15.70;99.90;;;;;;5073554;28;20081;-47
2022/10/13 11:27:08;;;;;;;1.07;0.80;;;15.60;99.90;;;;;;5073161;28;20503;-50
2022/10/13 11:30:00;;;;;;;1.40;0.60;;;15.70;99.90;;;;;;5073132;28;20341;-48
2022/10/13 11:32:40;;;;;;;0.93;0.60;;;15.70;99.90;;;;;;5060148;28;20032;-49
2022/10/13 11:35:05;;;;;;;;;;;15.90;99.90;;;;;;5073737;28;20031;-45
2022/10/13 11:37:52;;;;;;;2.45;0.70;;;15.90;99.90;;;;;;5073076;28;19916;-44
2022/10/13 11:40:29;;;;;;;0.80;0.50;;;16.00;99.90;;;;;;5072848;28;20491;-45
2022/10/13 11:43:27;;;;;;;1.65;0.60;;;16.00;99.90;;;;;;5073381;28;20036;-48
2022/10/13 11:46:07;;;;;;;0.50;0.50;;;16.00;99.90;;;;;;5037339;28;20029;-47
2022/10/13 11:49:01;;;;;;;0.65;0.60;;;16.00;99.90;;;;;;5073181;28;20021;-44
2022/10/13 11:51:56;;;;;;;0.85;0.60;;;16.10;99.90;;;;;;5073034;28;20025;-46
2022/10/13 11:54:30;;;;;;;0.95;0.70;;;16.20;99.90;;;;;;5072785;28;20391;-46
2022/10/13 11:56:57;;;;;;;2.38;0.90;;;16.60;99.90;;;;;;5071961;28;20036;-48
2022/10/13 11:59:28;;;;;;;0.60;0.50;;;16.90;99.90;;;;;;5071765;28;20025;-47
2022/10/13 12:01:59;;;;;;;1.23;0.50;;;17.10;99.90;;;;;;5072527;28;20054;-46
2022/10/13 12:04:27;;;;;;;0.55;0.40;;;17.10;99.90;;;;;;5072284;28;20023;-49
2022/10/13 12:07:02;;;;;;;0.50;0.50;;;17.00;99.90;;;;;;5072479;28;20488;-51
2022/10/13 12:09:30;;;;;;;0.40;0.40;;;17.20;99.90;;;;;;5072472;28;20029;-46
2022/10/13 12:12:16;;;;;;;1.77;0.52;;;17.30;99.90;;;;;;5072502;28;20557;-46
2022/10/13 12:14:46;;;;;;;0.90;0.65;;;17.30;99.90;;;;;;5072783;28;20033;-50
2022/10/13 12:17:47;;;;;;;1.85;0.88;;;17.20;99.90;;;;;;5072452;28;20131;-43
2022/10/13 12:20:22;;;;;;;0.75;0.63;;;16.80;99.90;;;;;;5057514;28;20140;-51
2022/10/13 12:22:49;;;;;;;1.05;0.60;;;16.70;99.90;;;;;;5072502;28;20037;-45
2022/10/13 12:25:16;;;;;;;0.50;0.50;;;16.50;99.90;;;;;;5072980;28;20121;-46
2022/10/13 12:27:47;;;;;;;1.98;0.50;;;16.60;99.90;;;;;;5072162;28;20028;-46
2022/10/13 12:30:26;;;;;;;1.00;0.50;;;16.40;99.90;;;;;;5071948;28;20407;-48
2022/10/13 12:32:54;;;;;;;1.45;0.63;;;16.30;99.90;;;;;;5072471;28;20019;-44
2022/10/13 12:35:23;;;;;;;0.65;0.55;;;16.30;99.90;;;;;;5071969;28;20042;-45
2022/10/13 12:37:49;;;;;;;0.82;0.52;;;16.40;99.90;;;;;;5072239;28;20047;-49
2022/10/13 12:40:16;;;;;;;1.10;0.60;;;16.30;99.90;;;;;;5071927;28;20425;-47
2022/10/13 12:42:44;;;;;;;2.03;0.77;;;16.40;99.90;;;;;;5072440;28;20467;-45
2022/10/13 12:45:22;;;;;;;0.60;0.57;;;16.30;99.90;;;;;;5071896;28;20024;-48
2022/10/13 12:47:50;;;;;;;0.82;0.63;;;16.40;99.90;;;;;;5072168;28;20039;-53
2022/10/13 12:50:33;;;;;;;0.52;0.50;;;16.30;99.90;;;;;;5071672;28;20032;-44
2022/10/13 12:53:04;;;;;;;1.63;0.70;;;16.20;99.90;;;;;;5072268;28;20036;-47
2022/10/13 12:55:31;;;;;;;2.88;0.80;;;16.00;99.90;;;;;;5071612;28;20119;-52
2022/10/13 12:57:58;;;;;;;1.10;0.60;;;16.20;99.90;;;;;;5071626;28;20387;-52
2022/10/13 13:00:28;;;;;;;3.70;0.68;;;16.20;99.90;;;;;;5071709;28;20024;-45
2022/10/13 13:03:03;;;;;;;1.67;0.70;;;16.20;99.90;;;;;;5061404;28;20467;-47
2022/10/13 13:05:32;;;;;;;2.38;1.00;;;16.10;99.90;;;;;;5071382;28;20032;-46
2022/10/13 13:07:59;;;;;;;1.00;0.60;;;16.30;99.90;;;;;;5071652;28;20012;-46